Главная страница
METAR-TAF:

METAR-TAF

Аэропорты :

Кымпия-Турзи, Румыния

широта: 46-30-12N, долгота: 023-53-07E, высота над уровнем моря: 324 м

Текущие метеонаблюдения

Эта сводка был подготовлена 1 час и 1 минут назад, в 20:00 UTC
Ветер 3 Узел от северо-западный
Температура 21°C
Влажность 69%
Давление 1016 hPa
Видимость 10 км и более
ясное небо

METAR: LRCT 202000Z 32003KT 9999 SKC 21/15 Q1016 BLU BLU

Время: 00:01 (21:01 UTC)

Прогноз

Эта сводка был подготовлена 4 часа и 1 минут назад, в 17:00 UTC
Прогноз действительный с 20-го 18 UTC до 21-го 18 UTC
Ветер 3 Узел переменных направлений
Видимость 10 км и более
ясное небо
изменения
С 21-го 10 UTC до 21-го 12 UTC
Ветер 6 Узел от северный
небольшая облачность на высоте 5000 фута
временами
С 21-го 13 UTC до 21-го 17 UTC
небольшая облачность на высоте 5000 фута, Кучево-дождевые.
Отдельные облака на высоте 7000 фута

TAF: LRCT 201700Z 2018/2118 VRB03KT 9999 SKC BECMG 2110/2112 36006KT FEW050 TEMPO 2113/2117 FEW050CB SCT070

Метеонаблюдения и прогнозы для более 4000 аэропортов (сводки METAR и TAF).

Имеющиеся станции представлены на карте желтыми и красными точками.

Чтобы увидеть название станции, наведите на нее мышь.

Затем щелкните, чтобы увидеть метеонаблюдения и метеопрогнозы.

Управление картой: чтобы увеличить масштаб, щелкните зеленые кнопки с черным крестиком; чтобы уменьшить масштаб, щелкните зеленую кнопку с тире; для просмотра соседних карт щелкайте зеленые стрелки.


METAR-TAF: